Time;durP1;ratioP1;P1;durP2;ratioP2;P2;SDS_P1;SDS_P2;PMS_P1;PMS_P2;Temp;Humidity;BMP_temperature;BMP_pressure;BME280_temperature;BME280_humidity;BME280_pressure;Samples;Min_cycle;Max_cycle;Signal;HPM_P1;HPM_P2
2020/12/12 00:02:15;;;;;;;82.00;43.28;;;;;;;;;;6255896;28;20132;-70
2020/12/12 00:05:16;;;;;;;78.55;42.22;;;;;;;;;;6254613;28;20045;-71
2020/12/12 00:08:17;;;;;;;81.68;41.03;;;;;;;;;;6259822;28;20132;-68
2020/12/12 00:11:20;;;;;;;73.35;40.40;;;;;;;;;;6254246;28;20041;-68
2020/12/12 00:14:21;;;;;;;80.57;42.42;;;;;;;;;;6255899;28;20128;-68
2020/12/12 00:17:23;;;;;;;80.00;42.65;;;;;;;;;;6246189;28;20045;-68
2020/12/12 00:20:24;;;;;;;83.93;43.80;;;;;;;;;;6241263;28;20132;-70
2020/12/12 00:23:25;;;;;;;81.85;42.25;;;;;;;;;;6243071;28;20184;-69
2020/12/12 00:26:26;;;;;;;78.07;41.80;;;;;;;;;;6254930;28;20051;-68
2020/12/12 00:29:27;;;;;;;78.43;42.20;;;;;;;;;;6255687;28;20135;-68
2020/12/12 00:32:29;;;;;;;75.63;41.78;;;;;;;;;;6259539;28;20557;-70
2020/12/12 00:35:30;;;;;;;82.05;42.17;;;;;;;;;;6271782;28;20560;-68
2020/12/12 00:38:31;;;;;;;77.25;41.10;;;;;;;;;;6283909;28;20066;-68
2020/12/12 00:41:34;;;;;;;74.80;40.30;;;;;;;;;;6275455;28;20041;-68
2020/12/12 00:44:35;;;;;;;80.68;42.60;;;;;;;;;;6277503;28;20065;-74
2020/12/12 00:47:38;;;;;;;76.85;44.95;;;;;;;;;;6276191;28;20056;-69
2020/12/12 00:50:44;;;;;;;75.60;41.58;;;;;;;;;;6276964;28;20049;-71
2020/12/12 00:53:45;;;;;;;72.82;41.08;;;;;;;;;;6283180;28;20079;-68
2020/12/12 00:56:46;;;;;;;72.00;39.88;;;;;;;;;;6278233;28;21513;-69
2020/12/12 00:59:47;;;;;;;78.90;40.78;;;;;;;;;;6286090;28;20170;-68
2020/12/12 01:02:49;;;;;;;71.65;38.85;;;;;;;;;;6281480;28;20048;-72
2020/12/12 01:05:50;;;;;;;69.25;38.28;;;;;;;;;;6289366;28;20140;-68
2020/12/12 01:08:51;;;;;;;64.65;38.55;;;;;;;;;;6284000;28;20041;-69
2020/12/12 01:11:54;;;;;;;65.38;37.38;;;;;;;;;;6289541;28;20040;-73
2020/12/12 01:14:55;;;;;;;67.53;37.60;;;;;;;;;;6290215;28;20205;-71
2020/12/12 01:17:57;;;;;;;65.00;36.67;;;;;;;;;;6279549;28;20128;-69
2020/12/12 01:20:58;;;;;;;71.93;38.53;;;;;;;;;;6290213;28;20041;-71
2020/12/12 01:23:59;;;;;;;63.80;36.72;;;;;;;;;;6287784;28;20037;-69
2020/12/12 01:27:00;;;;;;;72.15;39.30;;;;;;;;;;6291298;28;20083;-70
2020/12/12 01:30:01;;;;;;;70.78;40.28;;;;;;;;;;6286340;28;20093;-69
2020/12/12 01:33:03;;;;;;;66.15;38.30;;;;;;;;;;6288974;28;20194;-72
2020/12/12 01:36:05;;;;;;;68.00;38.65;;;;;;;;;;6273734;28;20563;-72
2020/12/12 01:39:06;;;;;;;64.10;37.78;;;;;;;;;;6252257;28;20037;-69
2020/12/12 01:42:07;;;;;;;67.60;37.65;;;;;;;;;;6262929;28;20171;-68
2020/12/12 01:45:08;;;;;;;65.60;37.40;;;;;;;;;;6262772;28;20041;-69
2020/12/12 01:48:10;;;;;;;58.42;36.35;;;;;;;;;;6266031;28;20622;-68
2020/12/12 01:51:11;;;;;;;63.72;37.47;;;;;;;;;;6258938;28;20131;-70
2020/12/12 01:54:13;;;;;;;60.45;35.58;;;;;;;;;;6262348;28;20741;-68
2020/12/12 01:57:18;;;;;;;65.07;36.92;;;;;;;;;;6262017;28;20045;-68
2020/12/12 02:00:20;;;;;;;58.70;35.75;;;;;;;;;;6266449;28;20049;-69
2020/12/12 02:03:24;;;;;;;57.25;35.28;;;;;;;;;;6263832;28;20433;-71
2020/12/12 02:06:25;;;;;;;74.97;43.75;;;;;;;;;;6268560;28;20052;-69
2020/12/12 02:09:26;;;;;;;71.25;41.92;;;;;;;;;;6263375;28;20145;-71
2020/12/12 02:12:27;;;;;;;78.88;43.80;;;;;;;;;;6244722;28;20693;-69
2020/12/12 02:15:28;;;;;;;75.57;45.42;;;;;;;;;;6257535;28;20041;-68
2020/12/12 02:18:30;;;;;;;62.70;36.67;;;;;;;;;;6269785;28;20120;-68
2020/12/12 02:21:32;;;;;;;59.53;35.72;;;;;;;;;;6264696;28;20040;-68
2020/12/12 02:24:33;;;;;;;58.60;35.80;;;;;;;;;;6260521;28;20137;-70
2020/12/12 02:27:34;;;;;;;60.17;36.03;;;;;;;;;;6266548;28;20179;-67
2020/12/12 02:30:35;;;;;;;58.72;35.20;;;;;;;;;;6259026;28;20072;-69
2020/12/12 02:33:38;;;;;;;60.60;35.88;;;;;;;;;;6262939;28;20099;-69
2020/12/12 02:36:40;;;;;;;60.58;35.83;;;;;;;;;;6262090;28;20052;-67
2020/12/12 02:39:41;;;;;;;68.00;38.55;;;;;;;;;;6265796;28;20540;-67
2020/12/12 02:42:42;;;;;;;62.33;36.63;;;;;;;;;;6259958;28;20053;-68
2020/12/12 02:45:45;;;;;;;64.35;37.90;;;;;;;;;;6258812;28;20058;-68
2020/12/12 02:48:47;;;;;;;61.22;36.05;;;;;;;;;;6261297;28;20144;-68
2020/12/12 02:51:49;;;;;;;65.10;38.30;;;;;;;;;;6268663;28;20523;-68
2020/12/12 02:54:50;;;;;;;64.00;36.97;;;;;;;;;;6262985;28;20131;-68
2020/12/12 02:57:51;;;;;;;65.72;36.67;;;;;;;;;;6257927;28;20049;-68
2020/12/12 03:00:52;;;;;;;66.03;37.10;;;;;;;;;;6266361;28;20650;-68
2020/12/12 03:03:53;;;;;;;64.65;37.00;;;;;;;;;;6266005;28;20120;-69
2020/12/12 03:06:55;;;;;;;65.15;37.20;;;;;;;;;;6268911;28;20060;-68
2020/12/12 03:09:56;;;;;;;64.28;38.60;;;;;;;;;;6262945;28;20527;-68
2020/12/12 03:12:57;;;;;;;69.20;37.85;;;;;;;;;;6258433;28;20194;-68
2020/12/12 03:15:58;;;;;;;62.88;36.65;;;;;;;;;;6258780;28;20572;-71
2020/12/12 03:18:59;;;;;;;67.50;39.58;;;;;;;;;;6258812;28;20040;-69
2020/12/12 03:22:01;;;;;;;63.75;38.10;;;;;;;;;;6263874;28;20467;-70
2020/12/12 03:25:03;;;;;;;64.97;37.47;;;;;;;;;;6261662;28;20406;-69
2020/12/12 03:28:04;;;;;;;67.45;39.47;;;;;;;;;;6265401;28;20132;-68
2020/12/12 03:31:05;;;;;;;66.25;38.33;;;;;;;;;;6261681;28;20434;-67
2020/12/12 03:34:06;;;;;;;60.08;37.95;;;;;;;;;;6261905;28;20589;-68
2020/12/12 03:37:08;;;;;;;64.45;37.78;;;;;;;;;;6274469;28;20056;-68
2020/12/12 03:40:09;;;;;;;59.42;36.28;;;;;;;;;;6286810;28;20139;-68
2020/12/12 03:43:10;;;;;;;65.30;37.03;;;;;;;;;;6293503;28;20044;-68
2020/12/12 03:46:11;;;;;;;63.80;37.97;;;;;;;;;;6284981;28;20504;-68
2020/12/12 03:49:12;;;;;;;67.13;38.40;;;;;;;;;;6285265;28;20249;-68
2020/12/12 03:52:15;;;;;;;66.28;39.35;;;;;;;;;;6287602;28;20047;-68
2020/12/12 03:55:16;;;;;;;64.43;39.65;;;;;;;;;;6288596;28;20089;-70
2020/12/12 03:58:17;;;;;;;64.50;38.47;;;;;;;;;;6287403;28;20040;-71
2020/12/12 04:01:18;;;;;;;66.75;37.67;;;;;;;;;;6285161;28;20252;-71
2020/12/12 04:04:19;;;;;;;64.38;37.67;;;;;;;;;;6273606;28;20771;-68
2020/12/12 04:07:21;;;;;;;61.30;35.95;;;;;;;;;;6261548;28;20098;-69
2020/12/12 04:10:22;;;;;;;58.60;35.45;;;;;;;;;;6248091;28;20140;-70
2020/12/12 04:13:23;;;;;;;69.68;37.97;;;;;;;;;;6255810;28;20044;-69
2020/12/12 04:16:24;;;;;;;64.88;37.00;;;;;;;;;;6265308;28;20137;-69
2020/12/12 04:19:25;;;;;;;63.30;36.72;;;;;;;;;;6256115;28;20052;-69
2020/12/12 04:22:27;;;;;;;67.90;37.05;;;;;;;;;;6263431;28;20179;-69
2020/12/12 04:25:28;;;;;;;63.25;36.55;;;;;;;;;;6265195;28;20093;-69
2020/12/12 04:28:29;;;;;;;66.75;38.15;;;;;;;;;;6260958;28;20045;-68
2020/12/12 04:31:31;;;;;;;68.45;38.28;;;;;;;;;;6263347;28;20049;-67
2020/12/12 04:34:32;;;;;;;71.13;38.33;;;;;;;;;;6256779;28;20055;-68
2020/12/12 04:37:35;;;;;;;67.68;36.78;;;;;;;;;;6263043;28;20110;-69
2020/12/12 04:40:36;;;;;;;64.22;36.33;;;;;;;;;;6261833;28;20049;-69
2020/12/12 04:43:39;;;;;;;64.80;36.63;;;;;;;;;;6259643;28;20053;-67
2020/12/12 04:46:40;;;;;;;67.57;37.50;;;;;;;;;;6259472;28;20053;-67
2020/12/12 04:49:41;;;;;;;64.72;36.95;;;;;;;;;;6258989;28;20068;-67
2020/12/12 04:52:43;;;;;;;66.13;37.05;;;;;;;;;;6265102;28;20143;-67
2020/12/12 04:55:46;;;;;;;69.20;38.08;;;;;;;;;;6262771;28;20051;-68
2020/12/12 04:58:49;;;;;;;65.35;37.88;;;;;;;;;;6259218;28;20048;-68
2020/12/12 05:01:50;;;;;;;69.55;40.15;;;;;;;;;;6257358;28;20045;-68
2020/12/12 05:04:51;;;;;;;64.35;37.95;;;;;;;;;;6262095;28;20045;-70
2020/12/12 05:07:53;;;;;;;66.38;37.80;;;;;;;;;;6246890;28;20045;-68
2020/12/12 05:10:54;;;;;;;66.25;38.22;;;;;;;;;;6254253;28;20136;-67
2020/12/12 05:13:55;;;;;;;65.65;37.95;;;;;;;;;;6255844;28;20094;-69
2020/12/12 05:16:58;;;;;;;67.40;37.47;;;;;;;;;;6255914;28;20131;-68
2020/12/12 05:19:59;;;;;;;72.70;39.40;;;;;;;;;;6254013;28;20079;-68
2020/12/12 05:23:01;;;;;;;69.40;39.10;;;;;;;;;;6254933;28;20045;-67
2020/12/12 05:26:02;;;;;;;69.30;38.97;;;;;;;;;;6258630;28;20151;-68
2020/12/12 05:29:04;;;;;;;69.32;39.30;;;;;;;;;;6253993;28;20084;-68
2020/12/12 05:32:06;;;;;;;69.15;39.47;;;;;;;;;;6254065;28;20124;-69
2020/12/12 05:35:07;;;;;;;71.03;38.00;;;;;;;;;;6245734;28;20094;-67
2020/12/12 05:38:09;;;;;;;69.20;38.63;;;;;;;;;;6255303;28;20095;-69
2020/12/12 05:41:11;;;;;;;63.25;37.28;;;;;;;;;;6256430;28;20048;-69
2020/12/12 05:44:13;;;;;;;65.90;38.17;;;;;;;;;;6251556;28;20072;-68
2020/12/12 05:47:14;;;;;;;62.90;35.97;;;;;;;;;;6255901;28;20089;-69
2020/12/12 05:50:15;;;;;;;63.20;37.50;;;;;;;;;;6265567;28;20543;-67
2020/12/12 05:53:17;;;;;;;60.40;37.75;;;;;;;;;;6249823;28;20627;-68
2020/12/12 05:56:18;;;;;;;61.63;37.42;;;;;;;;;;6265634;28;20679;-68
2020/12/12 05:59:20;;;;;;;64.70;38.70;;;;;;;;;;6259609;28;20049;-67
2020/12/12 06:02:24;;;;;;;61.05;36.65;;;;;;;;;;6274877;28;20134;-68
2020/12/12 06:05:27;;;;;;;61.90;37.10;;;;;;;;;;6256836;28;20405;-69
2020/12/12 06:08:33;;;;;;;60.55;34.03;;;;;;;;;;6262050;28;20094;-68
2020/12/12 06:11:39;;;;;;;60.65;35.40;;;;;;;;;;6258088;28;20560;-68
2020/12/12 06:14:42;;;;;;;57.97;33.55;;;;;;;;;;6262847;28;20128;-69
2020/12/12 06:17:54;;;;;;;59.17;34.83;;;;;;;;;;6277811;28;20197;-68
2020/12/12 06:20:55;;;;;;;60.58;35.85;;;;;;;;;;6287658;28;20406;-68
2020/12/12 06:23:58;;;;;;;59.97;35.53;;;;;;;;;;6282094;28;20514;-70
2020/12/12 06:27:01;;;;;;;61.15;35.28;;;;;;;;;;6280527;28;20166;-68
2020/12/12 06:30:06;;;;;;;58.20;33.83;;;;;;;;;;6281602;28;20182;-68
2020/12/12 06:33:07;;;;;;;58.92;34.58;;;;;;;;;;6277933;28;20127;-68
2020/12/12 06:36:22;;;;;;;55.40;34.30;;;;;;;;;;6285942;28;20174;-70
2020/12/12 06:39:25;;;;;;;56.83;33.80;;;;;;;;;;6285557;28;20044;-68
2020/12/12 06:42:31;;;;;;;55.03;32.55;;;;;;;;;;6287880;28;20045;-69
2020/12/12 06:45:32;;;;;;;54.30;32.67;;;;;;;;;;6281230;28;20082;-69
2020/12/12 06:48:34;;;;;;;49.50;30.85;;;;;;;;;;6273370;28;20045;-68
2020/12/12 06:51:37;;;;;;;52.38;32.40;;;;;;;;;;6258104;28;20041;-70
2020/12/12 06:54:38;;;;;;;53.70;32.28;;;;;;;;;;6260176;28;20056;-69
2020/12/12 06:57:41;;;;;;;54.05;33.60;;;;;;;;;;6265250;28;20053;-70
2020/12/12 07:00:42;;;;;;;47.47;30.20;;;;;;;;;;6254130;28;20056;-68
2020/12/12 07:03:55;;;;;;;48.83;31.20;;;;;;;;;;6256761;28;20040;-69
2020/12/12 07:06:58;;;;;;;48.45;30.73;;;;;;;;;;6257876;28;20098;-69
2020/12/12 07:10:03;;;;;;;49.53;30.02;;;;;;;;;;6253365;28;20048;-70
2020/12/12 07:13:05;;;;;;;48.78;30.35;;;;;;;;;;6254572;28;20075;-68
2020/12/12 07:16:06;;;;;;;48.50;28.90;;;;;;;;;;6254492;28;20143;-71
2020/12/12 07:19:07;;;;;;;46.75;30.05;;;;;;;;;;6257947;28;20044;-69
2020/12/12 07:22:10;;;;;;;49.85;29.58;;;;;;;;;;6262178;28;20094;-70
2020/12/12 07:25:12;;;;;;;47.97;29.60;;;;;;;;;;6267397;28;20045;-68
2020/12/12 07:28:13;;;;;;;53.97;32.28;;;;;;;;;;6261925;28;20044;-68
2020/12/12 07:31:14;;;;;;;56.03;34.08;;;;;;;;;;6258985;28;20049;-69
2020/12/12 07:34:17;;;;;;;54.60;32.20;;;;;;;;;;6257056;28;20183;-68
2020/12/12 07:37:18;;;;;;;54.67;33.08;;;;;;;;;;6263234;28;21688;-68
2020/12/12 07:40:20;;;;;;;57.35;32.70;;;;;;;;;;5926635;28;9999876;-68
2020/12/12 07:43:21;;;;;;;55.53;33.28;;;;;;;;;;6253333;28;20049;-69
2020/12/12 07:46:37;;;;;;;55.05;32.65;;;;;;;;;;6254772;28;20056;-72
2020/12/12 07:49:38;;;;;;;51.07;31.10;;;;;;;;;;5556425;28;9999962;-69
2020/12/12 07:52:41;;;;;;;51.63;32.17;;;;;;;;;;6256822;28;20084;-70
2020/12/12 07:55:49;;;;;;;48.58;30.88;;;;;;;;;;6256159;28;20420;-69
2020/12/12 07:59:02;;;;;;;54.42;31.05;;;;;;;;;;6250767;28;20505;-69
2020/12/12 08:02:04;;;;;;;51.40;31.00;;;;;;;;;;6253919;28;20052;-68
2020/12/12 08:05:06;;;;;;;49.45;30.83;;;;;;;;;;6256584;28;20076;-68
2020/12/12 08:08:09;;;;;;;51.17;31.45;;;;;;;;;;6255989;28;20099;-68
2020/12/12 08:11:11;;;;;;;52.28;30.90;;;;;;;;;;6250596;28;20068;-69
2020/12/12 08:14:12;;;;;;;52.88;33.10;;;;;;;;;;6254273;28;20080;-68
2020/12/12 08:17:13;;;;;;;52.90;31.98;;;;;;;;;;6251457;28;20056;-68
2020/12/12 08:20:15;;;;;;;47.88;31.40;;;;;;;;;;6253523;28;20049;-69
2020/12/12 08:23:18;;;;;;;54.15;30.95;;;;;;;;;;6254320;28;20041;-68
2020/12/12 08:26:21;;;;;;;48.42;30.20;;;;;;;;;;6275206;28;20561;-68
2020/12/12 08:29:22;;;;;;;55.58;31.20;;;;;;;;;;6256485;28;20393;-70
2020/12/12 08:32:28;;;;;;;43.38;29.48;;;;;;;;;;6253244;28;20184;-69
2020/12/12 08:35:30;;;;;;;47.55;28.30;;;;;;;;;;6257056;28;20068;-68
2020/12/12 08:38:31;;;;;;;44.03;27.88;;;;;;;;;;6254987;28;20049;-69
2020/12/12 08:41:35;;;;;;;41.85;27.52;;;;;;;;;;6250695;28;20052;-67
2020/12/12 08:44:36;;;;;;;40.15;27.35;;;;;;;;;;6254530;28;20106;-68
2020/12/12 08:47:37;;;;;;;43.78;27.80;;;;;;;;;;6257257;28;20194;-68
2020/12/12 08:50:49;;;;;;;38.80;26.45;;;;;;;;;;6257073;28;20080;-67
2020/12/12 08:53:51;;;;;;;39.20;26.80;;;;;;;;;;6258185;28;20057;-69
2020/12/12 08:57:08;;;;;;;40.80;25.98;;;;;;;;;;6256015;28;20045;-68
2020/12/12 09:00:09;;;;;;;38.42;25.80;;;;;;;;;;6257201;28;20053;-68
2020/12/12 09:03:10;;;;;;;41.90;25.65;;;;;;;;;;6257215;28;20075;-67
2020/12/12 09:06:11;;;;;;;39.00;26.38;;;;;;;;;;6255395;28;20116;-69
2020/12/12 09:09:14;;;;;;;37.28;24.65;;;;;;;;;;6252620;28;20087;-68
2020/12/12 09:12:18;;;;;;;41.50;26.15;;;;;;;;;;6251855;28;20045;-68
2020/12/12 09:15:19;;;;;;;36.58;26.30;;;;;;;;;;6253604;28;20114;-69
2020/12/12 09:18:20;;;;;;;39.78;26.30;;;;;;;;;;6239840;28;20124;-67
2020/12/12 09:21:21;;;;;;;41.25;25.95;;;;;;;;;;6255027;28;20125;-68
2020/12/12 09:24:23;;;;;;;41.83;27.67;;;;;;;;;;6270185;28;20049;-67
2020/12/12 09:27:25;;;;;;;40.60;26.60;;;;;;;;;;6269583;28;20041;-68
2020/12/12 09:30:26;;;;;;;40.50;26.27;;;;;;;;;;6265860;28;20500;-71
2020/12/12 09:33:27;;;;;;;42.85;25.10;;;;;;;;;;6263299;28;20045;-69
2020/12/12 09:36:28;;;;;;;41.97;25.80;;;;;;;;;;6265069;28;20067;-68
2020/12/12 09:39:29;;;;;;;39.53;26.15;;;;;;;;;;6265081;28;20192;-69
2020/12/12 09:42:31;;;;;;;40.50;25.77;;;;;;;;;;6268091;28;20510;-67
2020/12/12 09:45:32;;;;;;;40.92;26.02;;;;;;;;;;6282798;28;20048;-69
2020/12/12 09:48:33;;;;;;;46.05;27.88;;;;;;;;;;6285244;28;20190;-66
2020/12/12 09:51:35;;;;;;;47.80;30.57;;;;;;;;;;5935861;28;10001213;-67
2020/12/12 09:54:36;;;;;;;54.78;32.33;;;;;;;;;;5930667;28;10000422;-69
2020/12/12 09:57:38;;;;;;;54.83;34.20;;;;;;;;;;6278590;28;20045;-68
2020/12/12 10:00:40;;;;;;;50.85;33.40;;;;;;;;;;6280423;28;20060;-70
2020/12/12 10:03:41;;;;;;;58.40;35.05;;;;;;;;;;6282584;28;20145;-68
2020/12/12 10:06:43;;;;;;;56.40;34.35;;;;;;;;;;6290008;28;20049;-67
2020/12/12 10:09:44;;;;;;;57.70;34.20;;;;;;;;;;6271149;28;20834;-68
2020/12/12 10:12:46;;;;;;;57.88;33.75;;;;;;;;;;6260392;28;20126;-68
2020/12/12 10:15:47;;;;;;;53.35;33.85;;;;;;;;;;6259625;28;20045;-70
2020/12/12 10:18:48;;;;;;;58.10;35.40;;;;;;;;;;6260394;28;20057;-68
2020/12/12 10:21:49;;;;;;;59.97;35.85;;;;;;;;;;6252314;28;20135;-68
2020/12/12 10:24:51;;;;;;;53.40;33.85;;;;;;;;;;6254044;28;20174;-67
2020/12/12 10:27:55;;;;;;;52.25;33.15;;;;;;;;;;6259089;28;20056;-69
2020/12/12 10:30:57;;;;;;;53.80;33.22;;;;;;;;;;6258985;28;20057;-69
2020/12/12 10:33:58;;;;;;;53.13;34.45;;;;;;;;;;6258768;28;20076;-68
2020/12/12 10:36:59;;;;;;;56.50;34.75;;;;;;;;;;6256235;28;20101;-68
2020/12/12 10:40:09;;;;;;;61.67;36.50;;;;;;;;;;6260634;28;20164;-68
2020/12/12 10:43:11;;;;;;;60.17;34.65;;;;;;;;;;6256258;28;20045;-69
2020/12/12 10:46:12;;;;;;;54.53;35.15;;;;;;;;;;6250762;28;20071;-68
2020/12/12 10:49:13;;;;;;;50.60;33.50;;;;;;;;;;6259555;28;20052;-69
2020/12/12 10:52:14;;;;;;;45.95;31.05;;;;;;;;;;6254890;28;20196;-71
2020/12/12 10:55:15;;;;;;;47.95;29.83;;;;;;;;;;6253383;28;20061;-70
2020/12/12 10:58:17;;;;;;;48.22;29.23;;;;;;;;;;6255429;28;20408;-69
2020/12/12 11:01:18;;;;;;;43.95;28.98;;;;;;;;;;5556060;28;10000816;-68
2020/12/12 11:04:19;;;;;;;46.08;29.52;;;;;;;;;;6254952;28;20041;-67
2020/12/12 11:07:20;;;;;;;46.95;29.05;;;;;;;;;;6259243;28;20049;-68
2020/12/12 11:10:21;;;;;;;46.53;29.20;;;;;;;;;;6258840;28;20395;-71
2020/12/12 11:13:23;;;;;;;40.65;27.27;;;;;;;;;;6278595;28;20132;-68
2020/12/12 11:16:25;;;;;;;40.70;28.67;;;;;;;;;;6280082;28;20800;-68
2020/12/12 11:19:26;;;;;;;41.00;26.90;;;;;;;;;;6278580;28;20122;-68
2020/12/12 11:22:27;;;;;;;42.50;28.50;;;;;;;;;;6278925;28;20189;-68
2020/12/12 11:25:28;;;;;;;42.95;27.55;;;;;;;;;;6281217;28;20135;-68
2020/12/12 11:28:30;;;;;;;42.25;27.70;;;;;;;;;;6286275;28;20165;-70
2020/12/12 11:31:31;;;;;;;39.03;25.40;;;;;;;;;;6274963;28;20041;-69
2020/12/12 11:34:35;;;;;;;40.22;26.88;;;;;;;;;;6284255;28;20044;-68
2020/12/12 11:41:02;;;;;;;42.10;28.23;;;;;;;;;;6273631;28;20044;-68
2020/12/12 11:47:32;;;;;;;43.92;28.20;;;;;;;;;;6228532;28;20051;-69
2020/12/12 11:50:33;;;;;;;37.80;26.90;;;;;;;;;;6272120;28;20529;-68
2020/12/12 11:53:34;;;;;;;38.03;24.45;;;;;;;;;;6273948;28;20067;-68
2020/12/12 11:56:35;;;;;;;35.97;24.63;;;;;;;;;;6261880;28;20037;-67
2020/12/12 11:59:37;;;;;;;41.55;27.35;;;;;;;;;;6258369;28;20556;-67
2020/12/12 12:02:39;;;;;;;40.50;28.77;;;;;;;;;;6250486;28;20127;-68
2020/12/12 12:05:42;;;;;;;43.22;28.95;;;;;;;;;;6256255;28;20093;-68
2020/12/12 12:08:57;;;;;;;43.55;28.90;;;;;;;;;;6256153;28;20059;-67
2020/12/12 12:11:58;;;;;;;42.08;28.17;;;;;;;;;;6249859;28;20413;-67
2020/12/12 12:15:00;;;;;;;41.30;28.25;;;;;;;;;;6270427;28;20559;-67
2020/12/12 12:18:01;;;;;;;38.08;26.35;;;;;;;;;;6281192;28;20141;-68
2020/12/12 12:21:03;;;;;;;38.47;25.50;;;;;;;;;;6274057;28;20647;-69
2020/12/12 12:24:05;;;;;;;45.05;28.63;;;;;;;;;;5926775;28;10000244;-68
2020/12/12 12:27:07;;;;;;;42.90;28.05;;;;;;;;;;6276070;28;20060;-67
2020/12/12 12:30:09;;;;;;;43.72;30.48;;;;;;;;;;6276687;28;20055;-69
2020/12/12 12:33:10;;;;;;;41.15;27.45;;;;;;;;;;6278783;28;20044;-68
2020/12/12 12:36:11;;;;;;;40.78;27.75;;;;;;;;;;6277075;28;21033;-67
2020/12/12 12:39:12;;;;;;;38.97;26.10;;;;;;;;;;6269989;28;20053;-68
2020/12/12 12:42:13;;;;;;;38.80;26.33;;;;;;;;;;6259199;28;20149;-70
2020/12/12 12:45:15;;;;;;;37.58;24.77;;;;;;;;;;6259952;28;20808;-69
2020/12/12 12:48:17;;;;;;;39.80;26.25;;;;;;;;;;6260669;28;20102;-67
2020/12/12 12:51:18;;;;;;;38.83;25.63;;;;;;;;;;6261977;28;20355;-69
2020/12/12 12:54:19;;;;;;;37.28;23.80;;;;;;;;;;6262684;28;20041;-69
2020/12/12 12:57:20;;;;;;;39.70;26.65;;;;;;;;;;6263727;28;20097;-68
2020/12/12 13:00:22;;;;;;;42.20;27.83;;;;;;;;;;6257975;28;20045;-69
2020/12/12 13:03:23;;;;;;;41.72;28.38;;;;;;;;;;6253835;28;20041;-69
2020/12/12 13:06:25;;;;;;;39.67;25.88;;;;;;;;;;6252803;28;20048;-67
2020/12/12 13:09:26;;;;;;;37.25;24.38;;;;;;;;;;5917908;28;10000547;-68
2020/12/12 13:12:27;;;;;;;42.35;27.92;;;;;;;;;;6262328;28;20410;-69
2020/12/12 13:15:30;;;;;;;47.80;30.90;;;;;;;;;;6264076;28;20037;-68
2020/12/12 13:18:40;;;;;;;49.17;32.40;;;;;;;;;;6254182;28;20041;-68
2020/12/12 13:21:44;;;;;;;54.13;31.98;;;;;;;;;;6261093;28;20061;-68
2020/12/12 13:24:45;;;;;;;51.20;32.50;;;;;;;;;;6257873;28;20044;-68
2020/12/12 13:27:46;;;;;;;49.70;32.25;;;;;;;;;;6257345;28;20092;-67
2020/12/12 13:31:04;;;;;;;50.53;33.75;;;;;;;;;;6262508;28;20109;-70
2020/12/12 13:34:05;;;;;;;52.35;33.75;;;;;;;;;;6260365;28;20166;-68
2020/12/12 13:37:06;;;;;;;50.78;34.33;;;;;;;;;;6261053;28;20079;-69
2020/12/12 13:40:08;;;;;;;60.50;37.85;;;;;;;;;;6257814;28;20143;-68
2020/12/12 13:43:09;;;;;;;56.00;37.78;;;;;;;;;;6250336;28;20214;-69
2020/12/12 13:46:11;;;;;;;56.38;35.67;;;;;;;;;;6260670;28;20045;-68
2020/12/12 13:49:12;;;;;;;58.15;35.03;;;;;;;;;;6255121;28;20217;-68
2020/12/12 13:52:13;;;;;;;57.08;35.55;;;;;;;;;;6254486;28;20122;-70
2020/12/12 13:55:14;;;;;;;56.97;36.15;;;;;;;;;;6259257;28;20056;-68
2020/12/12 13:58:15;;;;;;;56.28;34.28;;;;;;;;;;6274034;28;20651;-68
2020/12/12 14:01:17;;;;;;;55.63;34.80;;;;;;;;;;6251546;28;20500;-67
2020/12/12 14:04:18;;;;;;;52.80;33.45;;;;;;;;;;6250004;28;20042;-68
2020/12/12 14:07:28;;;;;;;54.88;33.88;;;;;;;;;;6251789;28;20143;-69
2020/12/12 14:10:51;;;;;;;53.42;31.77;;;;;;;;;;6258141;28;20125;-70
2020/12/12 14:23:43;;;;;;;50.88;33.42;;;;;;;;;;6250512;28;20368;-69
2020/12/12 14:30:04;;;;;;;50.72;32.38;;;;;;;;;;6258232;28;20136;-68
2020/12/12 14:33:06;;;;;;;48.88;31.75;;;;;;;;;;6247309;28;20132;-70
2020/12/12 14:36:09;;;;;;;50.45;34.25;;;;;;;;;;6257781;28;20040;-69
2020/12/12 14:39:10;;;;;;;53.17;32.65;;;;;;;;;;6253839;28;20052;-69
2020/12/12 14:42:11;;;;;;;50.10;31.23;;;;;;;;;;6262224;28;20057;-71
2020/12/12 14:45:12;;;;;;;50.10;30.80;;;;;;;;;;6263271;28;20041;-69
2020/12/12 14:48:14;;;;;;;50.60;32.63;;;;;;;;;;6260554;28;20118;-72
2020/12/12 14:51:17;;;;;;;46.47;30.77;;;;;;;;;;6258783;28;20515;-69
2020/12/12 14:54:18;;;;;;;48.55;30.10;;;;;;;;;;6251572;28;20064;-71
2020/12/12 14:57:19;;;;;;;46.22;29.45;;;;;;;;;;6262750;28;20122;-70
2020/12/12 15:00:21;;;;;;;49.80;31.38;;;;;;;;;;6275438;28;20178;-70
2020/12/12 15:03:22;;;;;;;46.00;29.15;;;;;;;;;;5928147;28;10000108;-70
2020/12/12 15:06:24;;;;;;;46.30;30.40;;;;;;;;;;6278289;28;20052;-69
2020/12/12 15:09:25;;;;;;;48.08;29.65;;;;;;;;;;5927213;28;9999755;-69
2020/12/12 15:12:31;;;;;;;47.30;30.92;;;;;;;;;;6283249;28;20194;-69
2020/12/12 15:15:32;;;;;;;47.72;31.63;;;;;;;;;;6288914;28;20123;-69
2020/12/12 15:18:35;;;;;;;45.30;29.17;;;;;;;;;;6268339;28;20122;-69
2020/12/12 15:21:36;;;;;;;46.42;29.45;;;;;;;;;;6259560;28;20053;-69
2020/12/12 15:24:37;;;;;;;48.60;30.00;;;;;;;;;;6265774;28;20123;-69
2020/12/12 15:27:38;;;;;;;49.05;29.77;;;;;;;;;;6257249;28;20202;-69
2020/12/12 15:30:41;;;;;;;46.47;28.85;;;;;;;;;;6263355;28;20128;-67
2020/12/12 15:33:43;;;;;;;44.63;28.65;;;;;;;;;;6259238;28;20057;-69
2020/12/12 15:36:44;;;;;;;45.60;28.42;;;;;;;;;;6258565;28;21891;-70
2020/12/12 15:39:45;;;;;;;43.35;27.85;;;;;;;;;;6258367;28;20156;-69
2020/12/12 15:42:46;;;;;;;41.42;27.75;;;;;;;;;;6258816;28;20473;-70
2020/12/12 15:45:47;;;;;;;45.03;28.98;;;;;;;;;;6256106;28;20422;-69
2020/12/12 15:48:49;;;;;;;43.70;27.80;;;;;;;;;;6260478;28;20132;-69
2020/12/12 15:51:51;;;;;;;48.05;28.98;;;;;;;;;;6254479;28;20066;-69
2020/12/12 15:54:52;;;;;;;43.20;27.27;;;;;;;;;;6256088;28;20450;-70
2020/12/12 15:57:53;;;;;;;41.15;26.58;;;;;;;;;;6255396;28;20492;-72
2020/12/12 16:00:56;;;;;;;42.35;25.80;;;;;;;;;;6258669;28;20053;-69
2020/12/12 16:03:58;;;;;;;41.92;26.80;;;;;;;;;;6253340;28;20064;-72
2020/12/12 16:07:00;;;;;;;43.15;27.27;;;;;;;;;;6252409;28;20083;-69
2020/12/12 16:10:01;;;;;;;39.75;25.52;;;;;;;;;;6242590;28;20048;-70
2020/12/12 16:13:03;;;;;;;42.72;26.67;;;;;;;;;;6252426;28;20500;-69
2020/12/12 16:16:04;;;;;;;42.40;27.55;;;;;;;;;;6256310;28;20045;-73
2020/12/12 16:19:06;;;;;;;45.67;26.27;;;;;;;;;;6262463;28;20045;-69
2020/12/12 16:22:08;;;;;;;41.78;27.15;;;;;;;;;;6263744;28;20071;-70
2020/12/12 16:25:09;;;;;;;40.45;26.10;;;;;;;;;;6264347;28;20052;-70
2020/12/12 16:28:10;;;;;;;42.58;27.25;;;;;;;;;;6258783;28;20179;-71
2020/12/12 16:31:11;;;;;;;40.97;26.13;;;;;;;;;;6265945;28;20178;-70
2020/12/12 16:34:13;;;;;;;44.63;26.58;;;;;;;;;;6275415;28;20500;-70
2020/12/12 16:37:14;;;;;;;43.00;26.83;;;;;;;;;;6252806;28;20046;-73
2020/12/12 16:40:15;;;;;;;45.35;26.98;;;;;;;;;;6252876;28;20068;-68
2020/12/12 16:43:16;;;;;;;45.65;28.45;;;;;;;;;;6262130;28;20079;-69
2020/12/12 16:46:17;;;;;;;44.75;26.75;;;;;;;;;;6263707;28;20045;-69
2020/12/12 16:49:19;;;;;;;42.75;26.80;;;;;;;;;;6261726;28;20577;-69
2020/12/12 16:52:20;;;;;;;45.25;27.77;;;;;;;;;;6252847;28;20041;-68
2020/12/12 16:55:22;;;;;;;44.22;27.50;;;;;;;;;;6253368;28;20114;-69
2020/12/12 16:58:23;;;;;;;48.42;28.83;;;;;;;;;;6262079;28;20463;-70
2020/12/12 17:01:24;;;;;;;45.05;28.60;;;;;;;;;;6257915;28;20078;-69
2020/12/12 17:04:26;;;;;;;49.08;29.70;;;;;;;;;;6256752;28;20140;-69
2020/12/12 17:07:27;;;;;;;49.92;29.15;;;;;;;;;;6247512;28;20056;-69
2020/12/12 17:10:30;;;;;;;47.38;28.95;;;;;;;;;;6254995;28;20056;-69
2020/12/12 17:13:31;;;;;;;47.65;28.80;;;;;;;;;;6255219;28;20155;-68
2020/12/12 17:16:35;;;;;;;50.25;29.75;;;;;;;;;;6249966;28;20526;-70
2020/12/12 17:19:37;;;;;;;52.53;30.35;;;;;;;;;;5904945;28;10000463;-70
2020/12/12 17:22:42;;;;;;;50.97;30.70;;;;;;;;;;6251677;28;20053;-71
2020/12/12 17:25:44;;;;;;;45.65;28.73;;;;;;;;;;6260189;28;20044;-72
2020/12/12 17:28:45;;;;;;;53.85;31.17;;;;;;;;;;6255470;28;20070;-70
2020/12/12 17:31:46;;;;;;;52.20;31.23;;;;;;;;;;6249101;28;20090;-69
2020/12/12 17:34:48;;;;;;;49.88;31.17;;;;;;;;;;6257310;28;20136;-71
2020/12/12 17:37:50;;;;;;;54.00;29.63;;;;;;;;;;6256295;28;20094;-69
2020/12/12 17:40:51;;;;;;;51.15;30.92;;;;;;;;;;6254713;28;20536;-69
2020/12/12 17:43:52;;;;;;;51.08;31.52;;;;;;;;;;6248910;28;20052;-70
2020/12/12 17:46:57;;;;;;;56.13;31.27;;;;;;;;;;6256070;28;20118;-68
2020/12/12 17:49:59;;;;;;;52.72;30.88;;;;;;;;;;6256990;28;20045;-69
2020/12/12 17:53:00;;;;;;;50.72;30.45;;;;;;;;;;6259495;28;20143;-68
2020/12/12 17:56:01;;;;;;;52.75;33.50;;;;;;;;;;6251826;28;20152;-70
2020/12/12 17:59:02;;;;;;;54.40;32.00;;;;;;;;;;6259310;28;20098;-69